Time;durP1;ratioP1;P1;durP2;ratioP2;P2;SDS_P1;SDS_P2;PMS_P1;PMS_P2;Temp;Humidity;BMP_temperature;BMP_pressure;BME280_temperature;BME280_humidity;BME280_pressure;Samples;Min_cycle;Max_cycle;Signal;HPM_P1;HPM_P2
2023/04/23 00:00:14;;;;;;;6.30;2.75;;;13.70;99.90;;;;;;5015416;28;20037;-78
2023/04/23 00:02:43;;;;;;;3.95;2.80;;;13.60;99.90;;;;;;5028419;28;20091;-78
2023/04/23 00:05:11;;;;;;;4.65;2.70;;;13.60;99.90;;;;;;5029798;28;20429;-78
2023/04/23 00:07:38;;;;;;;3.28;2.22;;;13.60;99.90;;;;;;5015640;28;20033;-78
2023/04/23 00:10:04;;;;;;;2.60;2.35;;;13.60;99.90;;;;;;5029004;28;20559;-78
2023/04/23 00:12:31;;;;;;;5.22;2.67;;;13.50;99.90;;;;;;5024904;28;20034;-78
2023/04/23 00:14:57;;;;;;;3.78;2.90;;;13.50;99.90;;;;;;5032138;28;20076;-78
2023/04/23 00:17:23;;;;;;;4.18;2.25;;;13.60;99.90;;;;;;5029619;28;20037;-78
2023/04/23 00:19:50;;;;;;;4.10;2.50;;;13.50;99.90;;;;;;5027952;28;20390;-78
2023/04/23 00:22:16;;;;;;;3.47;2.60;;;13.50;99.90;;;;;;5013484;28;20044;-78
2023/04/23 00:24:42;;;;;;;2.75;2.55;;;13.50;99.90;;;;;;5025167;28;20030;-79
2023/04/23 00:27:08;;;;;;;4.85;2.90;;;13.50;99.90;;;;;;5016758;28;20033;-78
2023/04/23 00:29:34;;;;;;;3.05;2.70;;;13.40;99.90;;;;;;5031709;28;20084;-78
2023/04/23 00:32:00;;;;;;;2.80;2.47;;;13.40;99.90;;;;;;5025659;28;20033;-78
2023/04/23 00:34:26;;;;;;;2.97;2.67;;;13.30;99.90;;;;;;5033751;28;20489;-78
2023/04/23 00:36:52;;;;;;;2.72;2.45;;;13.30;99.90;;;;;;5028344;28;20522;-79
2023/04/23 00:39:18;;;;;;;3.25;2.30;;;13.20;99.90;;;;;;5025190;28;20041;-79
2023/04/23 00:41:44;;;;;;;3.35;2.35;;;13.30;99.90;;;;;;5027452;28;20038;-78
2023/04/23 00:44:12;;;;;;;2.65;2.45;;;13.20;99.90;;;;;;5019941;28;20034;-78
2023/04/23 00:46:38;;;;;;;2.75;2.50;;;13.20;99.90;;;;;;5030255;28;20041;-79
2023/04/23 00:49:03;;;;;;;3.72;2.47;;;13.20;99.90;;;;;;5029365;28;20030;-79
2023/04/23 00:51:30;;;;;;;2.92;2.20;;;13.20;99.90;;;;;;5029597;28;20030;-79
2023/04/23 00:53:57;;;;;;;2.50;2.30;;;13.10;99.90;;;;;;5031474;28;20069;-78
2023/04/23 00:56:24;;;;;;;3.25;2.67;;;13.10;99.90;;;;;;5023801;28;20120;-78
2023/04/23 00:58:54;;;;;;;3.13;2.70;;;13.00;99.90;;;;;;5021653;28;20040;-78
2023/04/23 01:01:20;;;;;;;3.55;2.40;;;12.90;99.90;;;;;;5018899;28;20038;-78
2023/04/23 01:03:51;;;;;;;3.85;2.70;;;12.90;99.90;;;;;;5011117;28;20042;-78
2023/04/23 01:06:18;;;;;;;5.03;2.65;;;12.80;99.90;;;;;;5028160;28;20044;-79
2023/04/23 01:08:45;;;;;;;4.22;2.72;;;12.70;99.90;;;;;;5030709;28;20065;-79
2023/04/23 01:11:13;;;;;;;4.40;2.40;;;12.70;99.90;;;;;;5017037;28;20155;-79
2023/04/23 01:13:41;;;;;;;4.45;2.58;;;12.60;99.90;;;;;;5022326;28;20030;-79
2023/04/23 01:16:07;;;;;;;2.70;2.50;;;12.60;99.90;;;;;;5020547;28;20466;-80
2023/04/23 01:18:33;;;;;;;4.53;2.58;;;12.50;99.90;;;;;;5024857;28;20494;-79
2023/04/23 01:20:59;;;;;;;3.47;2.80;;;12.40;99.90;;;;;;5016924;28;20038;-79
2023/04/23 01:23:28;;;;;;;4.53;2.83;;;12.30;99.90;;;;;;5021732;28;20041;-79
2023/04/23 01:25:54;;;;;;;3.33;2.40;;;12.30;99.90;;;;;;5015719;28;20506;-78
2023/04/23 01:28:20;;;;;;;6.70;2.75;;;12.20;99.90;;;;;;5009998;28;20030;-80
2023/04/23 01:30:47;;;;;;;2.97;2.58;;;12.20;99.90;;;;;;5018944;28;20030;-78
2023/04/23 01:33:13;;;;;;;3.72;2.38;;;12.20;99.90;;;;;;5027078;28;20025;-78
2023/04/23 01:35:43;;;;;;;5.03;2.78;;;12.10;99.90;;;;;;5022218;28;20076;-79
2023/04/23 01:38:10;;;;;;;2.90;2.55;;;12.20;99.90;;;;;;5024257;28;20049;-78
2023/04/23 01:40:37;;;;;;;4.05;2.60;;;12.20;99.90;;;;;;5026403;28;20025;-77
2023/04/23 01:43:03;;;;;;;3.95;2.33;;;12.20;99.90;;;;;;5027840;28;20083;-78
2023/04/23 01:45:30;;;;;;;3.15;2.75;;;12.30;99.90;;;;;;5026010;28;20076;-78
2023/04/23 01:47:57;;;;;;;6.38;3.90;;;12.20;99.90;;;;;;5011474;28;20021;-79
2023/04/23 01:50:25;;;;;;;6.28;3.40;;;12.20;99.90;;;;;;5002998;28;20025;-78
2023/04/23 01:52:51;;;;;;;4.63;3.70;;;12.10;99.90;;;;;;5023906;28;20034;-78
2023/04/23 01:55:19;;;;;;;4.72;4.03;;;12.10;99.90;;;;;;5013210;28;20116;-78
2023/04/23 01:57:48;;;;;;;6.10;4.07;;;12.00;99.90;;;;;;5020456;28;20034;-78
2023/04/23 02:00:16;;;;;;;8.48;4.22;;;11.90;99.90;;;;;;5023855;28;20026;-77
2023/04/23 02:02:43;;;;;;;5.05;3.58;;;11.80;99.90;;;;;;5022601;28;20033;-78
2023/04/23 02:05:11;;;;;;;4.32;3.67;;;11.70;99.90;;;;;;5026114;28;20033;-78
2023/04/23 02:07:38;;;;;;;7.57;3.70;;;11.70;99.90;;;;;;5027069;28;20589;-78
2023/04/23 02:10:04;;;;;;;4.05;3.40;;;11.60;99.90;;;;;;5031186;28;20028;-78
2023/04/23 02:12:30;;;;;;;7.93;3.45;;;11.60;99.90;;;;;;5025339;28;20038;-78
2023/04/23 02:14:56;;;;;;;5.03;3.53;;;11.60;99.90;;;;;;5033703;28;20036;-79
2023/04/23 02:17:22;;;;;;;5.05;3.10;;;11.60;99.90;;;;;;5039441;28;20080;-78
2023/04/23 02:19:48;;;;;;;8.88;3.03;;;11.70;99.90;;;;;;5034733;28;20101;-78
2023/04/23 02:22:15;;;;;;;3.20;2.90;;;11.60;99.90;;;;;;5019081;28;20037;-78
2023/04/23 02:24:43;;;;;;;5.28;3.25;;;11.70;99.90;;;;;;5041907;28;20038;-78
2023/04/23 02:27:09;;;;;;;5.13;3.28;;;11.80;99.90;;;;;;5023631;28;20482;-78
2023/04/23 02:29:35;;;;;;;5.60;3.50;;;11.90;99.90;;;;;;5046515;28;20026;-78
2023/04/23 02:32:02;;;;;;;4.13;3.63;;;11.90;99.90;;;;;;5026074;28;20102;-78
2023/04/23 02:34:28;;;;;;;3.63;3.25;;;11.90;99.90;;;;;;5026865;28;20033;-78
2023/04/23 02:36:54;;;;;;;4.22;3.20;;;11.90;99.90;;;;;;5026349;28;20124;-78
2023/04/23 02:39:20;;;;;;;4.75;3.47;;;11.90;99.90;;;;;;5027310;28;20120;-78
2023/04/23 02:41:45;;;;;;;3.88;3.20;;;11.90;99.90;;;;;;5027034;28;20053;-78
2023/04/23 02:44:11;;;;;;;3.78;3.08;;;11.80;99.90;;;;;;5024501;28;20677;-78
2023/04/23 02:46:37;;;;;;;7.07;4.22;;;11.70;99.90;;;;;;5030793;28;20120;-78
2023/04/23 02:49:03;;;;;;;3.80;3.33;;;11.70;99.90;;;;;;5023166;28;20056;-78
2023/04/23 02:51:30;;;;;;;3.88;2.97;;;11.60;99.90;;;;;;5030319;28;20517;-78
2023/04/23 02:53:56;;;;;;;4.10;3.05;;;11.60;99.90;;;;;;5014766;28;20041;-78
2023/04/23 02:56:22;;;;;;;4.68;3.15;;;11.50;99.90;;;;;;5025359;28;20038;-78
2023/04/23 02:58:48;;;;;;;5.45;3.28;;;11.60;99.90;;;;;;5022621;28;20037;-78
2023/04/23 03:01:14;;;;;;;3.80;3.33;;;11.60;99.90;;;;;;5030577;28;20437;-78
2023/04/23 03:03:40;;;;;;;3.30;3.00;;;11.60;99.90;;;;;;5021280;28;20565;-78
2023/04/23 03:06:06;;;;;;;4.10;2.97;;;11.70;99.90;;;;;;5026715;28;20047;-78
2023/04/23 03:08:32;;;;;;;4.05;3.30;;;11.70;99.90;;;;;;5026495;28;20056;-78
2023/04/23 03:10:59;;;;;;;4.60;2.90;;;11.60;99.90;;;;;;5013986;28;20029;-77
2023/04/23 03:13:25;;;;;;;3.88;3.00;;;11.60;99.90;;;;;;5031975;28;21032;-78
2023/04/23 03:15:52;;;;;;;5.35;3.50;;;11.60;99.90;;;;;;5025535;28;20029;-78
2023/04/23 03:18:19;;;;;;;4.10;3.05;;;11.60;99.90;;;;;;5020046;28;20157;-77
2023/04/23 03:20:48;;;;;;;5.22;2.83;;;11.60;99.90;;;;;;5020690;28;20382;-78
2023/04/23 03:23:15;;;;;;;3.88;3.25;;;11.60;99.90;;;;;;4995930;28;20043;-77
2023/04/23 03:25:42;;;;;;;3.28;2.38;;;11.60;99.90;;;;;;5035776;28;20049;-78
2023/04/23 03:28:08;;;;;;;5.07;2.60;;;11.60;99.90;;;;;;5029353;28;20034;-77
2023/04/23 03:30:33;;;;;;;3.90;2.90;;;11.60;99.90;;;;;;5022200;28;20041;-78
2023/04/23 03:33:01;;;;;;;4.25;2.70;;;11.60;99.90;;;;;;5023614;28;20026;-79
2023/04/23 03:35:27;;;;;;;5.40;2.67;;;11.50;99.90;;;;;;5025530;28;20057;-79
2023/04/23 03:37:54;;;;;;;4.97;2.80;;;11.60;99.90;;;;;;5034274;28;20037;-79
2023/04/23 03:40:22;;;;;;;2.60;2.25;;;11.60;99.90;;;;;;5020223;28;20046;-78
2023/04/23 03:42:51;;;;;;;3.40;2.80;;;11.60;99.90;;;;;;5008271;28;20033;-79
2023/04/23 03:45:22;;;;;;;3.80;2.53;;;11.50;99.90;;;;;;5015044;28;20036;-79
2023/04/23 03:47:48;;;;;;;4.57;2.72;;;11.50;99.90;;;;;;5028732;28;20064;-79
2023/04/23 03:50:16;;;;;;;2.80;2.53;;;11.50;99.90;;;;;;5013971;28;20029;-79
2023/04/23 03:52:43;;;;;;;6.68;2.65;;;11.50;99.90;;;;;;5032560;28;20659;-79
2023/04/23 03:55:15;;;;;;;6.50;3.20;;;11.60;99.90;;;;;;5027656;28;20084;-79
2023/04/23 03:57:44;;;;;;;3.67;2.65;;;11.60;99.90;;;;;;5002606;28;20036;-78
2023/04/23 04:00:24;;;;;;;2.95;2.42;;;11.60;99.90;;;;;;5024333;28;20029;-79
2023/04/23 04:02:49;;;;;;;6.97;2.60;;;11.60;99.90;;;;;;5023386;28;20065;-79
2023/04/23 04:05:15;;;;;;;3.05;2.30;;;11.60;99.90;;;;;;5028253;28;20030;-79
2023/04/23 04:07:42;;;;;;;4.03;2.60;;;11.70;99.90;;;;;;5027801;28;20575;-79
2023/04/23 04:10:08;;;;;;;4.97;2.63;;;11.70;99.90;;;;;;5028571;28;20417;-79
2023/04/23 04:12:35;;;;;;;3.88;2.35;;;11.70;99.90;;;;;;5016362;28;20478;-78
2023/04/23 04:15:02;;;;;;;7.13;3.63;;;11.80;99.90;;;;;;5023570;28;20033;-79
2023/04/23 04:17:28;;;;;;;2.97;2.30;;;11.80;99.90;;;;;;5025296;28;20109;-79
2023/04/23 04:19:53;;;;;;;2.85;2.38;;;11.90;99.90;;;;;;5029384;28;20653;-78
2023/04/23 04:22:19;;;;;;;3.67;2.30;;;11.80;99.90;;;;;;5022882;28;20038;-79
2023/04/23 04:24:46;;;;;;;5.15;2.67;;;11.90;99.90;;;;;;5029601;28;20119;-79
2023/04/23 04:27:12;;;;;;;3.08;2.22;;;11.80;99.90;;;;;;5040720;28;20108;-79
2023/04/23 04:29:41;;;;;;;2.80;2.05;;;11.80;99.90;;;;;;5025578;28;20026;-79
2023/04/23 04:32:08;;;;;;;4.45;2.60;;;11.90;99.90;;;;;;5023839;28;20196;-78
2023/04/23 04:34:35;;;;;;;5.07;2.78;;;11.90;99.90;;;;;;5030069;28;20037;-78
2023/04/23 04:37:01;;;;;;;4.57;2.60;;;11.90;99.90;;;;;;5018688;28;20056;-78
2023/04/23 04:39:26;;;;;;;3.88;2.75;;;12.00;99.90;;;;;;5023062;28;20109;-78
2023/04/23 04:41:53;;;;;;;3.70;2.55;;;11.90;99.90;;;;;;5034879;28;20064;-78
2023/04/23 04:44:20;;;;;;;3.15;2.40;;;11.90;99.90;;;;;;5021515;28;20383;-78
2023/04/23 04:46:46;;;;;;;3.55;2.55;;;11.90;99.90;;;;;;5025650;28;20033;-78
2023/04/23 04:49:12;;;;;;;3.45;2.75;;;11.90;99.90;;;;;;5021860;28;20029;-78
2023/04/23 04:51:40;;;;;;;3.83;3.22;;;12.00;99.90;;;;;;5041462;28;20457;-78
2023/04/23 04:54:06;;;;;;;7.10;3.03;;;12.00;99.90;;;;;;5035706;23;20057;-86
2023/04/23 04:56:35;;;;;;;4.75;2.92;;;12.10;99.90;;;;;;5013131;28;20551;-88
2023/04/23 04:59:03;;;;;;;3.55;2.85;;;12.10;99.90;;;;;;5003292;28;20034;-86
2023/04/23 05:01:29;;;;;;;3.28;2.58;;;12.10;99.90;;;;;;4993991;28;20034;-85
2023/04/23 05:03:56;;;;;;;3.58;2.80;;;12.10;99.90;;;;;;5009793;28;20037;-86
2023/04/23 05:06:22;;;;;;;4.05;3.17;;;12.20;99.90;;;;;;5010013;28;20033;-86
2023/04/23 05:08:48;;;;;;;3.35;2.40;;;12.20;99.90;;;;;;4993848;28;20457;-85
2023/04/23 05:11:18;;;;;;;4.13;2.78;;;12.20;99.90;;;;;;4993604;28;20389;-87
2023/04/23 05:13:45;;;;;;;4.10;2.67;;;12.20;99.90;;;;;;5008451;28;20030;-87
2023/04/23 05:16:11;;;;;;;3.03;2.10;;;12.30;99.90;;;;;;5009187;28;20037;-85
2023/04/23 05:18:37;;;;;;;3.10;2.60;;;12.30;99.90;;;;;;5010051;28;20036;-88
2023/04/23 05:21:05;;;;;;;3.83;2.83;;;12.30;99.90;;;;;;4992295;28;20464;-87
2023/04/23 05:23:31;;;;;;;2.40;2.20;;;12.30;99.90;;;;;;4992916;28;20030;-85
2023/04/23 05:25:57;;;;;;;3.20;2.17;;;12.30;99.90;;;;;;5010604;28;20018;-85
2023/04/23 05:28:24;;;;;;;5.25;2.60;;;12.30;99.90;;;;;;4993033;28;20030;-86
2023/04/23 05:30:50;;;;;;;4.13;2.30;;;12.30;99.90;;;;;;4993185;28;20034;-85
2023/04/23 05:33:17;;;;;;;4.28;2.97;;;12.40;99.90;;;;;;4993013;28;20034;-85
2023/04/23 05:35:42;;;;;;;3.40;2.50;;;12.30;99.90;;;;;;5009146;28;20026;-87
2023/04/23 05:38:09;;;;;;;3.50;2.75;;;12.40;99.90;;;;;;4992645;28;20053;-87
2023/04/23 05:40:35;;;;;;;4.93;2.35;;;12.30;99.90;;;;;;5009474;28;20402;-86
2023/04/23 05:43:01;;;;;;;4.00;2.70;;;12.40;99.90;;;;;;4978533;28;20038;-85
2023/04/23 05:45:27;;;;;;;3.38;3.08;;;12.40;99.90;;;;;;4996686;28;20038;-87
2023/04/23 05:47:53;;;;;;;6.00;3.33;;;12.30;99.90;;;;;;5013347;28;20034;-85
2023/04/23 05:50:20;;;;;;;4.10;2.60;;;12.30;99.90;;;;;;5013160;28;20034;-86
2023/04/23 05:52:46;;;;;;;4.15;3.75;;;12.30;99.90;;;;;;4996424;28;20028;-87
2023/04/23 05:55:14;;;;;;;4.57;3.03;;;12.30;99.90;;;;;;5013335;28;20038;-86
2023/04/23 05:57:40;;;;;;;3.50;2.95;;;12.30;99.90;;;;;;5013128;28;20034;-87
2023/04/23 06:00:13;;;;;;;3.67;3.28;;;12.30;99.90;;;;;;4996690;28;20125;-87
2023/04/23 06:02:42;;;;;;;3.90;2.92;;;12.30;99.90;;;;;;4995766;28;20035;-86
2023/04/23 06:05:08;;;;;;;3.45;2.80;;;12.40;99.90;;;;;;5013271;28;20166;-87
2023/04/23 06:07:35;;;;;;;4.38;2.83;;;12.30;99.90;;;;;;4996117;28;20478;-85
2023/04/23 06:10:02;;;;;;;4.22;2.50;;;12.40;99.90;;;;;;4997158;28;20052;-86
2023/04/23 06:12:27;;;;;;;4.10;3.38;;;12.40;99.90;;;;;;4996314;28;20096;-85
2023/04/23 06:14:53;;;;;;;4.15;2.90;;;12.40;99.90;;;;;;4978332;28;20038;-86
2023/04/23 06:17:19;;;;;;;3.88;3.00;;;12.40;99.90;;;;;;5012485;28;20041;-85
2023/04/23 06:19:45;;;;;;;3.50;3.00;;;12.40;99.90;;;;;;5014099;28;20026;-86
2023/04/23 06:22:11;;;;;;;4.03;3.00;;;12.40;99.90;;;;;;4979527;28;20418;-86
2023/04/23 06:24:36;;;;;;;5.60;2.90;;;12.40;99.90;;;;;;4979787;28;20744;-86
2023/04/23 06:27:02;;;;;;;3.72;3.42;;;12.40;99.90;;;;;;4995939;28;20544;-86
2023/04/23 06:29:31;;;;;;;4.68;3.15;;;12.40;99.90;;;;;;4980187;28;20034;-85
2023/04/23 06:32:04;;;;;;;4.18;3.17;;;12.40;99.90;;;;;;4980839;28;20073;-86
2023/04/23 06:34:30;;;;;;;3.35;3.05;;;12.50;99.90;;;;;;4992459;28;20042;-85
2023/04/23 06:36:56;;;;;;;3.47;3.17;;;12.50;99.90;;;;;;4995094;28;20123;-85
2023/04/23 06:39:22;;;;;;;3.75;3.05;;;12.60;99.90;;;;;;4996201;28;20379;-86
2023/04/23 06:41:47;;;;;;;3.65;3.00;;;12.60;99.90;;;;;;4995445;28;20502;-85
2023/04/23 06:44:20;;;;;;;3.20;2.90;;;12.70;99.90;;;;;;4996027;28;20030;-84
2023/04/23 06:46:50;;;;;;;4.88;2.70;;;12.70;99.90;;;;;;4995711;28;20053;-85
2023/04/23 06:49:16;;;;;;;3.63;2.70;;;12.70;99.90;;;;;;5008918;28;20166;-86
2023/04/23 06:51:43;;;;;;;4.60;2.72;;;12.70;99.90;;;;;;4975128;28;20144;-86
2023/04/23 06:54:08;;;;;;;4.07;2.95;;;12.70;99.90;;;;;;4994352;28;20052;-86
2023/04/23 06:56:34;;;;;;;2.65;2.45;;;12.80;99.90;;;;;;4995146;28;20490;-85
2023/04/23 06:59:00;;;;;;;3.67;2.47;;;12.90;99.90;;;;;;4979248;28;20062;-85
2023/04/23 07:01:29;;;;;;;3.10;2.78;;;13.00;99.90;;;;;;4995190;28;20033;-85
2023/04/23 07:03:55;;;;;;;3.00;2.70;;;13.10;99.90;;;;;;4978809;28;20575;-85
2023/04/23 07:06:21;;;;;;;3.42;2.55;;;13.20;99.90;;;;;;4994939;28;20030;-86
2023/04/23 07:08:47;;;;;;;2.50;2.30;;;13.20;99.90;;;;;;5007675;28;20077;-86
2023/04/23 07:11:13;;;;;;;3.03;2.72;;;13.20;99.90;;;;;;5011486;28;20028;-86
2023/04/23 07:13:39;;;;;;;3.40;2.65;;;13.20;99.90;;;;;;4993982;28;20030;-86
2023/04/23 07:16:05;;;;;;;3.05;2.35;;;13.20;99.90;;;;;;4994798;28;20037;-85
2023/04/23 07:18:31;;;;;;;4.53;2.63;;;13.20;99.90;;;;;;4978219;28;20048;-86
2023/04/23 07:20:57;;;;;;;3.45;3.08;;;13.20;99.90;;;;;;4987236;28;20034;-85
2023/04/23 07:23:22;;;;;;;2.90;2.60;;;13.20;99.90;;;;;;4979233;28;20033;-86
2023/04/23 07:25:48;;;;;;;6.70;4.05;;;13.10;99.90;;;;;;4988121;28;20026;-85
2023/04/23 07:28:14;;;;;;;3.78;3.00;;;13.00;99.90;;;;;;4992762;28;20030;-86
2023/04/23 07:30:40;;;;;;;4.30;3.35;;;12.90;99.90;;;;;;5010366;28;20018;-86
2023/04/23 07:33:06;;;;;;;4.57;3.15;;;12.80;99.90;;;;;;4976444;28;20076;-86
2023/04/23 07:35:31;;;;;;;4.30;2.90;;;12.70;99.90;;;;;;4977499;28;20045;-86
2023/04/23 07:37:57;;;;;;;3.10;2.80;;;12.60;99.90;;;;;;4993879;28;20034;-85
2023/04/23 07:40:24;;;;;;;4.70;3.97;;;12.50;99.90;;;;;;4979320;28;20033;-85
2023/04/23 07:42:51;;;;;;;4.32;3.35;;;12.40;99.90;;;;;;5014214;28;20474;-87
2023/04/23 07:45:17;;;;;;;5.20;3.75;;;12.40;99.90;;;;;;5011058;28;20025;-85
2023/04/23 07:47:45;;;;;;;6.07;3.72;;;12.40;99.90;;;;;;4994109;28;20030;-85
2023/04/23 07:50:11;;;;;;;4.45;3.80;;;12.40;99.90;;;;;;4995510;28;20038;-85
2023/04/23 07:52:37;;;;;;;3.83;3.33;;;12.40;99.90;;;;;;5010396;28;20034;-87
2023/04/23 07:55:04;;;;;;;3.78;3.22;;;12.50;99.90;;;;;;4994409;28;20034;-87
2023/04/23 07:57:30;;;;;;;3.05;2.72;;;12.50;99.90;;;;;;4976796;28;20491;-86
2023/04/23 07:59:56;;;;;;;3.17;2.88;;;12.50;99.90;;;;;;4977275;28;20048;-84
2023/04/23 08:02:24;;;;;;;3.13;2.83;;;12.50;99.90;;;;;;5010164;28;20042;-85
2023/04/23 08:04:51;;;;;;;6.03;4.07;;;12.50;99.90;;;;;;4977710;28;20398;-85
2023/04/23 08:07:17;;;;;;;3.90;3.50;;;12.40;99.90;;;;;;5010596;28;20099;-85
2023/04/23 08:09:43;;;;;;;3.60;3.30;;;12.50;99.90;;;;;;5010597;28;20037;-86
2023/04/23 08:12:10;;;;;;;3.92;3.28;;;12.50;99.90;;;;;;4978955;28;20026;-86
2023/04/23 08:14:35;;;;;;;3.20;2.88;;;12.60;99.90;;;;;;5010638;28;20037;-85
2023/04/23 08:17:05;;;;;;;3.22;2.92;;;12.70;99.90;;;;;;4978458;28;20041;-86
2023/04/23 08:19:32;;;;;;;3.33;2.92;;;12.70;99.90;;;;;;4978355;28;20402;-86
2023/04/23 08:21:58;;;;;;;3.03;2.80;;;12.90;99.90;;;;;;5010529;28;20042;-84
2023/04/23 08:24:25;;;;;;;3.42;3.13;;;13.00;99.90;;;;;;5009327;28;20030;-84
2023/04/23 08:26:51;;;;;;;3.70;3.08;;;13.00;99.90;;;;;;4994316;28;20030;-87
2023/04/23 08:29:17;;;;;;;4.20;3.08;;;13.20;99.90;;;;;;4994835;28;20521;-85
2023/04/23 08:31:43;;;;;;;3.45;3.15;;;13.40;99.90;;;;;;4977485;28;20029;-84
2023/04/23 08:34:09;;;;;;;3.92;3.22;;;13.70;99.90;;;;;;4996576;28;20053;-86
2023/04/23 08:36:35;;;;;;;3.72;2.90;;;14.10;99.90;;;;;;4960396;28;20069;-86
2023/04/23 08:39:02;;;;;;;4.95;4.10;;;14.60;99.90;;;;;;5001289;28;20038;-84
2023/04/23 08:41:36;;;;;;;3.70;2.50;;;15.10;99.90;;;;;;4978497;28;20069;-86
2023/04/23 08:44:14;;;;;;;2.67;2.25;;;15.70;99.90;;;;;;5009667;28;20169;-86
2023/04/23 08:46:43;;;;;;;2.88;2.17;;;16.10;99.90;;;;;;4994565;28;20026;-84
2023/04/23 08:49:14;;;;;;;3.38;2.85;;;16.40;99.90;;;;;;4993529;28;20112;-86
2023/04/23 08:51:47;;;;;;;4.95;4.10;;;16.50;99.90;;;;;;4993949;28;20494;-85
2023/04/23 08:54:17;;;;;;;3.92;2.17;;;16.60;99.90;;;;;;5009325;28;20501;-84
2023/04/23 08:56:44;;;;;;;2.80;2.40;;;16.70;99.90;;;;;;5010041;28;20080;-86
2023/04/23 08:59:10;;;;;;;2.97;2.78;;;16.70;99.90;;;;;;5009842;28;20092;-85
2023/04/23 09:01:36;;;;;;;3.00;2.70;;;16.60;99.90;;;;;;4977518;28;20546;-85
2023/04/23 09:04:02;;;;;;;2.78;2.03;;;16.40;99.90;;;;;;5009622;28;20102;-86
2023/04/23 09:06:31;;;;;;;2.72;1.88;;;16.10;99.90;;;;;;5010457;28;20022;-83
2023/04/23 09:08:58;;;;;;;3.08;2.78;;;16.00;99.90;;;;;;5007439;28;20376;-85
2023/04/23 09:11:27;;;;;;;3.05;2.03;;;15.80;99.90;;;;;;4993570;28;20033;-86
2023/04/23 09:13:55;;;;;;;2.50;2.30;;;15.60;99.90;;;;;;4977557;28;20034;-86
2023/04/23 09:16:21;;;;;;;3.38;2.20;;;15.50;99.90;;;;;;4979308;28;20379;-85
2023/04/23 09:18:46;;;;;;;3.75;2.35;;;15.40;99.90;;;;;;4998737;28;20034;-84
2023/04/23 09:21:13;;;;;;;2.70;2.22;;;15.20;99.90;;;;;;4964810;28;20038;-84
2023/04/23 09:23:40;;;;;;;3.08;2.17;;;15.10;99.90;;;;;;4967770;28;20038;-85
2023/04/23 09:26:06;;;;;;;2.40;2.20;;;15.00;99.90;;;;;;4996776;28;20449;-86
2023/04/23 09:28:36;;;;;;;6.15;2.38;;;15.00;99.90;;;;;;4981443;28;20438;-84
2023/04/23 09:31:05;;;;;;;2.80;2.20;;;15.00;99.90;;;;;;5010055;28;20050;-85
2023/04/23 09:33:33;;;;;;;2.63;2.42;;;15.10;99.90;;;;;;4977876;28;20026;-86
2023/04/23 09:36:08;;;;;;;2.40;2.10;;;15.00;99.90;;;;;;5006096;28;20034;-86
2023/04/23 09:38:35;;;;;;;3.00;2.30;;;15.10;99.90;;;;;;5002139;28;20026;-86
2023/04/23 09:41:20;;;;;;;2.50;2.30;;;15.20;99.90;;;;;;5005362;28;20114;-85
2023/04/23 09:43:47;;;;;;;2.83;2.55;;;15.40;99.90;;;;;;5004608;28;20490;-84
2023/04/23 09:46:15;;;;;;;2.85;2.33;;;15.70;99.90;;;;;;4994035;28;20081;-85
2023/04/23 09:48:44;;;;;;;2.55;2.35;;;15.90;99.90;;;;;;4997016;28;20037;-85
2023/04/23 09:51:14;;;;;;;2.50;2.30;;;16.10;99.90;;;;;;4982691;28;20097;-86
2023/04/23 09:53:44;;;;;;;2.35;2.10;;;16.10;99.90;;;;;;4980395;28;20044;-85
2023/04/23 09:56:10;;;;;;;2.60;2.40;;;16.30;99.90;;;;;;4987637;28;20508;-85
2023/04/23 09:58:37;;;;;;;2.47;2.28;;;16.40;99.90;;;;;;5026411;22;20033;-84
2023/04/23 10:01:07;;;;;;;2.65;2.45;;;16.40;99.90;;;;;;5021169;28;20060;-85
2023/04/23 10:03:46;;;;;;;2.75;2.33;;;16.50;99.90;;;;;;5020151;28;20059;-85
2023/04/23 10:06:14;;;;;;;4.18;2.50;;;16.60;99.90;;;;;;5047939;28;20068;-85
2023/04/23 10:08:40;;;;;;;2.72;2.33;;;16.70;99.90;;;;;;5021379;28;20074;-86
2023/04/23 10:11:06;;;;;;;3.50;2.25;;;16.80;99.90;;;;;;5030226;28;20025;-85
2023/04/23 10:13:36;;;;;;;3.28;2.20;;;16.90;99.90;;;;;;5047362;28;20032;-86
2023/04/23 10:16:03;;;;;;;3.80;2.28;;;17.00;99.90;;;;;;5029174;28;20141;-84
2023/04/23 10:18:31;;;;;;;2.90;2.30;;;17.10;99.90;;;;;;5033155;28;20035;-87
2023/04/23 10:20:57;;;;;;;3.75;1.98;;;17.00;99.90;;;;;;5011062;28;20629;-85
2023/04/23 10:23:24;;;;;;;2.42;2.08;;;17.00;99.90;;;;;;5007301;28;20033;-85
2023/04/23 10:25:53;;;;;;;2.22;2.00;;;16.90;99.90;;;;;;5041028;28;20426;-85
2023/04/23 10:28:27;;;;;;;2.72;2.25;;;16.90;99.90;;;;;;5011237;28;20029;-84
2023/04/23 10:30:54;;;;;;;2.88;2.17;;;16.70;99.90;;;;;;5029320;28;20053;-84
2023/04/23 10:33:21;;;;;;;3.90;1.80;;;16.60;99.90;;;;;;5023520;28;20025;-83
2023/04/23 10:35:48;;;;;;;1.85;1.73;;;16.50;99.90;;;;;;5036860;28;20040;-85
2023/04/23 10:38:15;;;;;;;1.60;1.17;;;16.50;99.90;;;;;;5042306;28;20033;-84
2023/04/23 10:40:45;;;;;;;2.20;2.00;;;16.70;99.90;;;;;;5025927;28;20026;-86
2023/04/23 10:43:12;;;;;;;1.55;1.45;;;16.90;99.90;;;;;;5038609;28;20040;-85
2023/04/23 10:45:38;;;;;;;1.77;1.67;;;17.20;99.90;;;;;;5037379;28;20036;-85
2023/04/23 10:48:03;;;;;;;2.05;1.85;;;17.40;99.90;;;;;;5027896;28;20401;-86
2023/04/23 10:50:35;;;;;;;1.77;1.63;;;17.40;99.90;;;;;;4997781;28;20041;-85
2023/04/23 10:53:02;;;;;;;1.92;1.70;;;17.40;99.90;;;;;;5039741;28;20029;-85
2023/04/23 10:55:29;;;;;;;1.90;1.75;;;17.40;99.90;;;;;;5021548;28;20044;-86
2023/04/23 10:58:06;;;;;;;2.65;1.58;;;17.30;99.90;;;;;;5056918;28;20048;-85
2023/04/23 11:00:44;;;;;;;1.92;1.50;;;17.40;99.90;;;;;;5045315;28;20094;-85
2023/04/23 11:03:35;;;;;;;1.75;1.65;;;17.50;99.90;;;;;;5044093;28;20036;-86
2023/04/23 11:06:02;;;;;;;2.78;1.60;;;17.60;99.90;;;;;;5037682;28;20048;-84
2023/04/23 11:08:31;;;;;;;1.40;1.30;;;17.80;99.90;;;;;;5013278;28;20434;-85
2023/04/23 11:10:58;;;;;;;3.08;1.20;;;17.90;99.90;;;;;;5015789;28;20035;-84
2023/04/23 11:13:25;;;;;;;1.58;1.05;;;17.90;99.90;;;;;;5022005;28;20033;-85
2023/04/23 11:16:14;;;;;;;1.52;1.42;;;17.80;99.90;;;;;;5027095;28;20031;-86
2023/04/23 11:19:01;;;;;;;1.08;1.00;;;17.90;99.90;;;;;;5036355;28;20120;-85
2023/04/23 11:21:53;;;;;;;1.75;1.23;;;18.00;99.90;;;;;;5029447;28;20210;-86
2023/04/23 11:24:21;;;;;;;0.98;0.90;;;18.20;99.60;;;;;;5034059;28;20036;-87
2023/04/23 11:26:53;;;;;;;1.98;1.08;;;18.10;98.10;;;;;;5023485;28;20025;-89
2023/04/23 11:29:24;;;;;;;1.35;0.90;;;17.80;98.40;;;;;;5010907;28;20597;-86
2023/04/23 11:31:54;;;;;;;2.35;0.95;;;17.90;97.70;;;;;;5041403;28;20489;-85
2023/04/23 11:34:21;;;;;;;0.85;0.82;;;17.80;97.30;;;;;;5038434;28;20051;-85
2023/04/23 11:36:50;;;;;;;1.58;0.95;;;18.00;97.90;;;;;;5024550;28;20044;-85
2023/04/23 11:39:18;;;;;;;3.60;0.90;;;18.10;99.50;;;;;;5014880;28;20041;-86
2023/04/23 11:41:45;;;;;;;1.00;0.88;;;18.30;97.80;;;;;;5023757;28;20033;-86
2023/04/23 11:44:11;;;;;;;1.25;1.00;;;18.30;97.30;;;;;;5020977;28;20038;-86
2023/04/23 11:46:38;;;;;;;4.13;0.90;;;18.40;94.50;;;;;;5002469;28;20133;-86
2023/04/23 11:49:05;;;;;;;0.80;0.80;;;18.50;97.20;;;;;;5029680;28;20537;-86
2023/04/23 11:51:31;;;;;;;1.02;0.93;;;18.40;96.90;;;;;;5031998;28;20489;-86
2023/04/23 11:54:04;;;;;;;0.70;0.70;;;18.40;96.90;;;;;;5044851;28;20036;-88
2023/04/23 11:56:31;;;;;;;1.20;1.05;;;18.30;96.60;;;;;;5020422;28;20033;-87
2023/04/23 11:59:02;;;;;;;0.88;0.88;;;18.40;97.20;;;;;;5033280;28;20045;-84
2023/04/23 12:01:45;;;;;;;0.93;0.80;;;18.20;96.00;;;;;;5018041;28;20028;-86
2023/04/23 12:04:14;;;;;;;1.23;0.70;;;18.00;96.00;;;;;;5020305;28;20033;-85
2023/04/23 12:06:42;;;;;;;0.75;0.70;;;17.90;95.90;;;;;;5040481;28;20045;-85
2023/04/23 12:09:11;;;;;;;1.17;0.70;;;18.00;95.70;;;;;;5040500;28;20719;-84
2023/04/23 12:11:40;;;;;;;0.80;0.80;;;17.90;94.00;;;;;;5010342;28;20032;-84
2023/04/23 12:14:09;;;;;;;0.55;0.50;;;17.90;94.20;;;;;;5007207;28;20139;-85
2023/04/23 12:16:45;;;;;;;0.85;0.70;;;17.90;94.70;;;;;;5020152;28;20625;-85
2023/04/23 12:19:17;;;;;;;0.80;0.70;;;17.70;93.60;;;;;;5018399;28;20033;-85
2023/04/23 12:22:11;;;;;;;1.55;0.60;;;17.70;94.10;;;;;;5027834;28;20501;-84
2023/04/23 12:24:50;;;;;;;0.82;0.57;;;17.80;93.70;;;;;;5043120;28;20032;-87
2023/04/23 12:27:19;;;;;;;0.60;0.60;;;17.90;95.70;;;;;;5043060;28;20144;-86
2023/04/23 12:29:46;;;;;;;0.82;0.70;;;18.10;94.60;;;;;;5027857;28;20025;-85
2023/04/23 12:32:23;;;;;;;0.88;0.80;;;18.20;92.80;;;;;;4999918;28;20030;-85
2023/04/23 12:34:54;;;;;;;0.98;0.75;;;18.40;92.70;;;;;;5033229;28;20036;-85
2023/04/23 12:37:28;;;;;;;0.80;0.80;;;18.60;92.60;;;;;;5038265;28;20032;-85
2023/04/23 12:39:55;;;;;;;0.70;0.70;;;18.70;92.70;;;;;;5018702;28;20481;-84
2023/04/23 12:42:24;;;;;;;0.63;0.63;;;18.90;93.80;;;;;;5026438;28;20243;-86
2023/04/23 12:44:51;;;;;;;1.38;0.88;;;19.00;91.80;;;;;;5022127;28;20499;-85
2023/04/23 12:47:19;;;;;;;0.60;0.52;;;18.90;90.60;;;;;;5023190;28;20465;-85
2023/04/23 12:49:48;;;;;;;0.73;0.73;;;18.80;92.50;;;;;;5015741;28;20043;-87